createdAt,value
2017-08-26T00:00:24.801Z,81.84
2017-08-26T00:01:05.374Z,81.84
2017-08-26T00:01:45.945Z,81.84
2017-08-26T00:02:26.540Z,81.93
2017-08-26T00:03:07.119Z,82.21
2017-08-26T00:03:47.690Z,81.84
2017-08-26T00:04:28.259Z,81.84
2017-08-26T00:05:08.831Z,81.79
2017-08-26T00:05:49.408Z,81.84
2017-08-26T00:06:29.989Z,82.03
2017-08-26T00:07:10.569Z,81.7
2017-08-26T00:07:51.156Z,81.98
2017-08-26T00:08:31.721Z,81.98
2017-08-26T00:09:12.290Z,81.7
2017-08-26T00:09:52.871Z,82.08
2017-08-26T00:10:33.438Z,81.89
2017-08-26T00:11:14.010Z,81.89
2017-08-26T00:11:54.576Z,81.54
2017-08-26T00:12:35.153Z,81.74
2017-08-26T00:13:15.731Z,81.79
2017-08-26T00:13:56.368Z,81.84
2017-08-26T00:14:36.931Z,81.84
2017-08-26T00:15:17.502Z,81.79
2017-08-26T00:15:58.078Z,81.93
2017-08-26T00:16:38.651Z,81.98
2017-08-26T00:17:19.219Z,81.79
2017-08-26T00:17:59.814Z,81.7
2017-08-26T00:18:40.394Z,81.89
2017-08-26T00:19:20.968Z,81.89
2017-08-26T00:20:01.535Z,81.89
2017-08-26T00:20:42.144Z,82.08
2017-08-26T00:21:22.692Z,81.89
2017-08-26T00:22:03.258Z,81.79
2017-08-26T00:22:43.850Z,81.98
2017-08-26T00:23:24.459Z,82.08
2017-08-26T00:24:05.030Z,81.89
2017-08-26T00:24:45.607Z,81.98
2017-08-26T00:25:26.168Z,82.08
2017-08-26T00:26:06.735Z,82.27
2017-08-26T00:26:47.303Z,82.27
2017-08-26T00:27:27.892Z,82.18
2017-08-26T00:28:08.449Z,82.37
2017-08-26T00:28:49.020Z,82.37
2017-08-26T00:29:29.583Z,82.37
2017-08-26T00:30:10.142Z,82.08
2017-08-26T00:30:50.708Z,82.37
2017-08-26T00:31:31.295Z,82.27
2017-08-26T00:32:11.886Z,82.75
2017-08-26T00:32:52.486Z,82.65
2017-08-26T00:33:33.054Z,82.94
2017-08-26T00:34:13.631Z,82.46
2017-08-26T00:34:54.203Z,82.46
2017-08-26T00:35:34.765Z,82.56
2017-08-26T00:36:15.352Z,82.56
2017-08-26T00:36:55.933Z,82.27
2017-08-26T00:37:36.503Z,82.18
2017-08-26T00:38:17.075Z,82.65
2017-08-26T00:38:57.658Z,82.85
2017-08-26T00:39:38.251Z,82.94
2017-08-26T00:40:18.827Z,82.37
2017-08-26T00:40:59.386Z,83.14
2017-08-26T00:41:39.952Z,82.85
2017-08-26T00:42:20.535Z,82.94
2017-08-26T00:43:01.122Z,82.94
2017-08-26T00:43:41.685Z,82.94
2017-08-26T00:44:22.250Z,82.85
2017-08-26T00:45:02.827Z,82.94
2017-08-26T00:45:43.393Z,82.94
2017-08-26T00:46:23.968Z,82.75
2017-08-26T00:47:04.534Z,82.94
2017-08-26T00:47:45.121Z,83.14
2017-08-26T00:48:25.682Z,82.52
2017-08-26T00:49:06.259Z,82.85
2017-08-26T00:49:46.824Z,83.14
2017-08-26T00:50:27.391Z,83.23
2017-08-26T00:51:07.970Z,82.85
2017-08-26T00:51:48.539Z,83.14
2017-08-26T00:52:29.111Z,83.14
2017-08-26T00:53:09.703Z,83.14
2017-08-26T00:53:50.276Z,83.23
2017-08-26T00:54:30.861Z,83.04
2017-08-26T00:55:11.424Z,83.81
2017-08-26T00:55:51.983Z,83.61
2017-08-26T00:56:32.550Z,83.71
2017-08-26T00:57:13.111Z,83.71
2017-08-26T00:57:53.675Z,83.52
2017-08-26T00:58:34.255Z,83.14
2017-08-26T00:59:14.838Z,83.14
2017-08-26T00:59:55.413Z,83.61
2017-08-26T01:00:35.983Z,83.23
2017-08-26T01:01:16.548Z,83.14
2017-08-26T01:01:57.129Z,83.23
2017-08-26T01:02:37.697Z,83.14
2017-08-26T01:03:18.268Z,83.14
2017-08-26T01:03:58.827Z,83.14
2017-08-26T01:04:39.385Z,83.04
2017-08-26T01:05:19.949Z,82.75
2017-08-26T01:06:00.524Z,83.14
2017-08-26T01:06:41.091Z,83.14
2017-08-26T01:07:21.657Z,83.04
2017-08-26T01:08:02.248Z,82.94
2017-08-26T01:08:42.836Z,82.94
2017-08-26T01:09:23.410Z,82.71
2017-08-26T01:10:03.977Z,82.65
2017-08-26T01:10:44.567Z,83.09
2017-08-26T01:11:25.139Z,82.9
2017-08-26T01:12:05.719Z,83
2017-08-26T01:12:46.314Z,82.9
2017-08-26T01:13:26.894Z,83.23
2017-08-26T01:14:07.475Z,83.19
2017-08-26T01:14:48.032Z,83.09
2017-08-26T01:15:28.625Z,83.09
2017-08-26T01:16:09.198Z,83.19
2017-08-26T01:16:49.773Z,83.09
2017-08-26T01:17:30.357Z,83.09
2017-08-26T01:18:10.938Z,83.23
2017-08-26T01:18:51.520Z,83.38
2017-08-26T01:19:32.086Z,83.52
2017-08-26T01:20:12.671Z,83.09
2017-08-26T01:20:53.286Z,83.48
2017-08-26T01:21:33.873Z,83.14
2017-08-26T01:22:14.483Z,83.67
2017-08-26T01:22:55.054Z,83.58
2017-08-26T01:23:35.628Z,83.48
2017-08-26T01:24:16.245Z,83.48
2017-08-26T01:24:56.810Z,83.48
2017-08-26T01:25:37.385Z,83.09
2017-08-26T01:26:17.982Z,83.38
2017-08-26T01:26:58.609Z,82.9
2017-08-26T01:27:39.184Z,83.58
2017-08-26T01:28:19.769Z,83.19
2017-08-26T01:29:00.345Z,83.19
2017-08-26T01:29:40.919Z,82.71
2017-08-26T01:30:21.507Z,83.48
2017-08-26T01:31:02.104Z,83.09
2017-08-26T01:31:42.700Z,83.67
2017-08-26T01:32:23.287Z,83.19
2017-08-26T01:33:03.822Z,83.09
2017-08-26T01:33:44.385Z,83.58
2017-08-26T01:34:24.951Z,83.38
2017-08-26T01:35:05.526Z,83.19
2017-08-26T01:35:46.117Z,83.67
2017-08-26T01:36:26.677Z,83.67
2017-08-26T01:37:07.237Z,83.67
2017-08-26T01:37:47.831Z,83.58
2017-08-26T01:38:28.409Z,83.38
2017-08-26T01:39:08.981Z,84.05
2017-08-26T01:39:49.546Z,83.67
2017-08-26T01:40:30.115Z,83.38
2017-08-26T01:41:10.678Z,83.58
2017-08-26T01:41:51.253Z,83.38
2017-08-26T01:42:31.842Z,83.29
2017-08-26T01:43:12.408Z,83.38
2017-08-26T01:43:52.961Z,83
2017-08-26T01:44:33.558Z,83.48
2017-08-26T01:45:14.122Z,84.15
2017-08-26T01:45:54.698Z,83.67
2017-08-26T01:46:35.285Z,83.09
2017-08-26T01:47:15.879Z,83.48
2017-08-26T01:47:56.463Z,83.58
2017-08-26T01:48:37.055Z,83.48
2017-08-26T01:49:17.634Z,83.48
2017-08-26T01:49:58.204Z,83.29
2017-08-26T01:50:38.781Z,83
2017-08-26T01:51:19.358Z,83.67
2017-08-26T01:51:59.948Z,83.58
2017-08-26T01:52:40.507Z,83.29
2017-08-26T01:53:21.115Z,83.19
2017-08-26T01:54:01.690Z,83
2017-08-26T01:54:42.276Z,83.09
2017-08-26T01:55:22.845Z,83.09
2017-08-26T01:56:03.404Z,83.38
2017-08-26T01:56:43.977Z,83.67
2017-08-26T01:57:24.552Z,83.38
2017-08-26T01:58:05.133Z,83.19
2017-08-26T01:58:45.709Z,83.67
2017-08-26T01:59:26.280Z,83.76
2017-08-26T02:00:06.856Z,83.58
2017-08-26T02:00:47.424Z,83.48
2017-08-26T02:01:27.998Z,83.38
2017-08-26T02:02:08.569Z,83.67
2017-08-26T02:02:49.130Z,83.38
2017-08-26T02:03:29.707Z,83.58
2017-08-26T02:04:10.286Z,83.67
2017-08-26T02:04:50.887Z,83.19
2017-08-26T02:05:31.469Z,83.19
2017-08-26T02:06:12.053Z,82.9
2017-08-26T02:06:52.600Z,83.19
2017-08-26T02:07:33.167Z,83.29
2017-08-26T02:08:13.750Z,82.9
2017-08-26T02:08:54.316Z,83.44
2017-08-26T02:09:34.890Z,82.96
2017-08-26T02:10:15.469Z,82.86
2017-08-26T02:10:56.064Z,82.67
2017-08-26T02:11:36.633Z,82.96
2017-08-26T02:12:17.248Z,83.25
2017-08-26T02:12:57.825Z,83.05
2017-08-26T02:13:38.397Z,82.9
2017-08-26T02:14:19.006Z,82.96
2017-08-26T02:14:59.574Z,83.19
2017-08-26T02:15:40.157Z,83.53
2017-08-26T02:16:20.742Z,83.44
2017-08-26T02:17:01.321Z,83.53
2017-08-26T02:17:41.886Z,82.76
2017-08-26T02:18:22.455Z,83.63
2017-08-26T02:19:03.038Z,83.19
2017-08-26T02:19:43.650Z,83.09
2017-08-26T02:20:24.214Z,83.15
2017-08-26T02:21:04.780Z,83.48
2017-08-26T02:21:45.361Z,82.71
2017-08-26T02:22:25.934Z,83.38
2017-08-26T02:23:06.510Z,83.44
2017-08-26T02:23:47.081Z,83.25
2017-08-26T02:24:27.669Z,83.15
2017-08-26T02:25:08.248Z,83.25
2017-08-26T02:25:48.818Z,83.15
2017-08-26T02:26:29.430Z,83.34
2017-08-26T02:27:10.011Z,83.44
2017-08-26T02:27:50.586Z,83.25
2017-08-26T02:28:31.167Z,83.34
2017-08-26T02:29:11.741Z,83.34
2017-08-26T02:29:52.328Z,83.63
2017-08-26T02:30:32.915Z,84.01
2017-08-26T02:31:13.494Z,84.01
2017-08-26T02:31:54.082Z,84.3
2017-08-26T02:32:34.670Z,84.01
2017-08-26T02:33:15.253Z,84.01
2017-08-26T02:33:55.811Z,83.92
2017-08-26T02:34:36.394Z,84.11
2017-08-26T02:35:16.978Z,83.82
2017-08-26T02:35:57.547Z,83.82
2017-08-26T02:36:38.111Z,84.01
2017-08-26T02:37:18.696Z,83.82
2017-08-26T02:37:59.259Z,83.92
2017-08-26T02:38:39.855Z,83.92
2017-08-26T02:39:20.450Z,83.82
2017-08-26T02:40:01.037Z,83.92
2017-08-26T02:40:41.603Z,84.01
2017-08-26T02:41:22.185Z,84.2
2017-08-26T02:42:02.770Z,84.01
2017-08-26T02:42:43.355Z,84.3
2017-08-26T02:43:23.931Z,84.11
2017-08-26T02:44:04.518Z,84.3
2017-08-26T02:44:45.090Z,84.2
2017-08-26T02:45:25.667Z,84.3
2017-08-26T02:46:06.233Z,84.2
2017-08-26T02:46:46.814Z,84.3
2017-08-26T02:47:27.376Z,84.39
2017-08-26T02:48:07.944Z,84.3
2017-08-26T02:48:48.546Z,84.49
2017-08-26T02:49:29.108Z,84.58
2017-08-26T02:50:09.670Z,84.11
2017-08-26T02:50:50.241Z,84.58
2017-08-26T02:51:30.831Z,84.49
2017-08-26T02:52:11.388Z,84.39
2017-08-26T02:52:51.974Z,84.11
2017-08-26T02:53:32.563Z,84.49
2017-08-26T02:54:13.131Z,84.3
2017-08-26T02:54:53.732Z,84.3
2017-08-26T02:55:34.285Z,84.58
2017-08-26T02:56:14.859Z,84.49
2017-08-26T02:56:55.420Z,84.68
2017-08-26T02:57:35.990Z,84.3
2017-08-26T02:58:16.562Z,84.97
2017-08-26T02:58:57.128Z,84.58
2017-08-26T02:59:37.706Z,84.58
2017-08-26T03:00:18.291Z,84.88
2017-08-26T03:00:58.843Z,84.68
2017-08-26T03:01:39.426Z,85.16
2017-08-26T03:02:19.996Z,84.97
2017-08-26T03:03:00.560Z,85.16
2017-08-26T03:03:41.141Z,84.97
2017-08-26T03:04:21.704Z,84.68
2017-08-26T03:05:02.272Z,84.97
2017-08-26T03:05:42.862Z,84.97
2017-08-26T03:06:23.449Z,84.97
2017-08-26T03:07:04.002Z,84.97
2017-08-26T03:07:44.589Z,84.88
2017-08-26T03:08:25.146Z,85.35
2017-08-26T03:09:05.729Z,84.97
2017-08-26T03:09:46.301Z,84.97
2017-08-26T03:10:26.915Z,84.88
2017-08-26T03:11:07.505Z,85.54
2017-08-26T03:11:48.066Z,84.78
2017-08-26T03:12:28.681Z,85.25
2017-08-26T03:13:09.242Z,85.35
2017-08-26T03:13:49.812Z,85.35
2017-08-26T03:14:30.414Z,85.74
2017-08-26T03:15:10.983Z,85.74
2017-08-26T03:15:51.582Z,85.54
2017-08-26T03:16:32.157Z,85.54
2017-08-26T03:17:12.720Z,85.54
2017-08-26T03:17:53.308Z,85.83
2017-08-26T03:18:33.881Z,85.54
2017-08-26T03:19:14.444Z,85.54
2017-08-26T03:19:55.002Z,85.93
2017-08-26T03:20:35.570Z,85.74
2017-08-26T03:21:16.137Z,85.54
2017-08-26T03:21:56.713Z,85.35
2017-08-26T03:22:37.284Z,85.54
2017-08-26T03:23:17.856Z,85.83
2017-08-26T03:23:58.425Z,85.64
2017-08-26T03:24:38.988Z,85.83
2017-08-26T03:25:19.555Z,85.83
2017-08-26T03:26:00.137Z,85.35
2017-08-26T03:26:40.690Z,85.64
2017-08-26T03:27:21.265Z,85.54
2017-08-26T03:28:01.835Z,85.93
2017-08-26T03:28:42.440Z,85.64
2017-08-26T03:29:23.026Z,85.54
2017-08-26T03:30:03.592Z,85.83
2017-08-26T03:30:44.156Z,85.35
2017-08-26T03:31:24.722Z,85.54
2017-08-26T03:32:05.299Z,85.74
2017-08-26T03:32:45.873Z,85.93
2017-08-26T03:33:26.440Z,85.64
2017-08-26T03:34:07.017Z,85.64
2017-08-26T03:34:47.584Z,85.74
2017-08-26T03:35:28.162Z,85.35
2017-08-26T03:36:08.727Z,85.83
2017-08-26T03:36:49.293Z,85.83
2017-08-26T03:37:29.865Z,85.83
2017-08-26T03:38:10.438Z,85.93
2017-08-26T03:38:51.000Z,86.21
2017-08-26T03:39:31.562Z,86.31
2017-08-26T03:40:12.126Z,86.21
2017-08-26T03:40:52.698Z,86.12
2017-08-26T03:41:33.269Z,85.93
2017-08-26T03:42:13.843Z,86.21
2017-08-26T03:42:54.413Z,85.93
2017-08-26T03:43:34.987Z,85.93
2017-08-26T03:44:15.567Z,86.5
2017-08-26T03:44:56.134Z,86.5
2017-08-26T03:45:36.699Z,86.12
2017-08-26T03:46:17.269Z,86.31
2017-08-26T03:46:57.859Z,86.02
2017-08-26T03:47:38.446Z,86.02
2017-08-26T03:48:19.015Z,86.31
2017-08-26T03:48:59.586Z,86.12
2017-08-26T03:49:40.152Z,86.21
2017-08-26T03:50:20.727Z,86.21
2017-08-26T03:51:01.309Z,86.31
2017-08-26T03:51:41.880Z,86.31
2017-08-26T03:52:22.443Z,86.31
2017-08-26T03:53:03.018Z,86.12
2017-08-26T03:53:43.609Z,86.21
2017-08-26T03:54:24.178Z,85.93
2017-08-26T03:55:04.756Z,86.31
2017-08-26T03:55:45.325Z,86.31
2017-08-26T03:56:25.904Z,86.12
2017-08-26T03:57:06.472Z,86.31
2017-08-26T03:57:47.050Z,86.31
2017-08-26T03:58:27.626Z,86.31
2017-08-26T03:59:08.200Z,86.12
2017-08-26T03:59:48.768Z,86.02
2017-08-26T04:00:29.336Z,86.21
2017-08-26T04:01:09.916Z,86.21
2017-08-26T04:01:50.495Z,86.21
2017-08-26T04:02:31.051Z,86.21
2017-08-26T04:03:11.609Z,86.12
2017-08-26T04:03:52.176Z,86.31
2017-08-26T04:04:32.750Z,86.31
2017-08-26T04:05:13.315Z,86.12
2017-08-26T04:05:53.892Z,86.21
2017-08-26T04:06:34.478Z,86.02
2017-08-26T04:07:15.039Z,86.21
2017-08-26T04:07:55.600Z,86.21
2017-08-26T04:08:36.184Z,86.02
2017-08-26T04:09:16.760Z,86.02
2017-08-26T04:09:57.354Z,86.31
2017-08-26T04:10:37.907Z,86.41
2017-08-26T04:11:18.477Z,86.02
2017-08-26T04:11:59.050Z,86.02
2017-08-26T04:12:39.626Z,86.21
2017-08-26T04:13:20.196Z,85.74
2017-08-26T04:14:00.760Z,85.83
2017-08-26T04:14:41.355Z,85.74
2017-08-26T04:15:21.947Z,85.74
2017-08-26T04:16:02.515Z,85.74
2017-08-26T04:16:43.095Z,85.83
2017-08-26T04:17:23.676Z,85.83
2017-08-26T04:18:04.233Z,85.93
2017-08-26T04:18:44.834Z,85.83
2017-08-26T04:19:25.403Z,85.74
2017-08-26T04:20:06.024Z,85.64
2017-08-26T04:20:46.587Z,86.02
2017-08-26T04:21:27.162Z,86.12
2017-08-26T04:22:07.756Z,85.93
2017-08-26T04:22:48.330Z,86.31
2017-08-26T04:23:28.894Z,86.02
2017-08-26T04:24:09.461Z,86.5
2017-08-26T04:24:50.026Z,85.93
2017-08-26T04:25:30.606Z,86.02
2017-08-26T04:26:11.166Z,85.83
2017-08-26T04:26:51.745Z,86.31
2017-08-26T04:27:32.325Z,86.12
2017-08-26T04:28:12.895Z,86.41
2017-08-26T04:28:53.472Z,86.79
2017-08-26T04:29:34.033Z,86.5
2017-08-26T04:30:14.620Z,86.88
2017-08-26T04:30:55.211Z,86.5
2017-08-26T04:31:35.800Z,86.31
2017-08-26T04:32:16.365Z,86.21
2017-08-26T04:32:56.932Z,86.31
2017-08-26T04:33:37.539Z,86.31
2017-08-26T04:34:18.116Z,86.31
2017-08-26T04:34:58.686Z,86.12
2017-08-26T04:35:39.265Z,86.31
2017-08-26T04:36:19.832Z,86.31
2017-08-26T04:37:00.394Z,85.83
2017-08-26T04:37:40.977Z,86.5
2017-08-26T04:38:21.570Z,86.12
2017-08-26T04:39:02.173Z,86.21
2017-08-26T04:39:42.746Z,86.31
2017-08-26T04:40:23.317Z,86.21
2017-08-26T04:41:03.897Z,86.02
2017-08-26T04:41:44.485Z,85.93
2017-08-26T04:42:25.084Z,86.5
2017-08-26T04:43:05.655Z,86.31
2017-08-26T04:43:46.217Z,86.31
2017-08-26T04:44:26.824Z,86.12
2017-08-26T04:45:07.410Z,85.83
2017-08-26T04:45:48.006Z,85.74
2017-08-26T04:46:28.590Z,85.35
2017-08-26T04:47:09.156Z,85.35
2017-08-26T04:47:49.716Z,85.74
2017-08-26T04:48:30.282Z,85.74
2017-08-26T04:49:10.903Z,85.16
2017-08-26T04:49:51.496Z,84.97
2017-08-26T04:50:32.077Z,84.88
2017-08-26T04:51:12.646Z,85.16
2017-08-26T04:51:53.228Z,84.68
2017-08-26T04:52:33.792Z,85.06
2017-08-26T04:53:14.360Z,84.58
2017-08-26T04:53:54.947Z,85.06
2017-08-26T04:54:35.507Z,85.06
2017-08-26T04:55:16.094Z,84.78
2017-08-26T04:55:56.671Z,84.97
2017-08-26T04:56:37.256Z,84.88
2017-08-26T04:57:17.861Z,84.88
2017-08-26T04:57:58.442Z,84.78
2017-08-26T04:58:39.018Z,84.97
2017-08-26T04:59:19.602Z,84.88
2017-08-26T05:00:00.176Z,85.06
2017-08-26T05:00:40.805Z,84.78
2017-08-26T05:01:21.384Z,84.88
2017-08-26T05:02:01.963Z,84.39
2017-08-26T05:02:42.555Z,84.3
2017-08-26T05:03:23.143Z,84.39
2017-08-26T05:04:03.743Z,84.39
2017-08-26T05:04:44.323Z,84.39
2017-08-26T05:05:24.902Z,84.78
2017-08-26T05:06:05.487Z,84.78
2017-08-26T05:06:46.080Z,84.97
2017-08-26T05:07:26.657Z,84.53
2017-08-26T05:08:07.244Z,84.49
2017-08-26T05:08:47.813Z,84.53
2017-08-26T05:09:28.380Z,84.58
2017-08-26T05:10:08.949Z,84.44
2017-08-26T05:10:49.523Z,84.34
2017-08-26T05:11:30.095Z,84.25
2017-08-26T05:12:10.677Z,83.86
2017-08-26T05:12:51.242Z,83.86
2017-08-26T05:13:31.805Z,84.05
2017-08-26T05:14:12.366Z,84.05
2017-08-26T05:14:52.928Z,83
2017-08-26T05:15:33.504Z,83.67
2017-08-26T05:16:14.104Z,83.09
2017-08-26T05:16:54.666Z,83.19
2017-08-26T05:17:35.251Z,83.58
2017-08-26T05:18:15.832Z,83
2017-08-26T05:18:56.392Z,82.9
2017-08-26T05:19:36.991Z,82.52
2017-08-26T05:20:17.567Z,82.81
2017-08-26T05:20:58.139Z,82.9
2017-08-26T05:21:38.716Z,83
2017-08-26T05:22:19.281Z,82.32
2017-08-26T05:22:59.848Z,82.23
2017-08-26T05:23:40.456Z,82.23
2017-08-26T05:24:21.079Z,82.23
2017-08-26T05:25:01.678Z,81.95
2017-08-26T05:25:42.249Z,81.75
2017-08-26T05:26:22.829Z,81.95
2017-08-26T05:27:03.414Z,81.46
2017-08-26T05:27:43.992Z,81.85
2017-08-26T05:28:24.572Z,81.75
2017-08-26T05:29:05.156Z,81.75
2017-08-26T05:29:45.743Z,81.56
2017-08-26T05:30:26.385Z,81.66
2017-08-26T05:31:06.957Z,81.75
2017-08-26T05:31:47.531Z,81.56
2017-08-26T05:32:28.117Z,81.27
2017-08-26T05:33:08.700Z,81.56
2017-08-26T05:33:49.287Z,80.89
2017-08-26T05:34:29.888Z,80.7
2017-08-26T05:35:10.470Z,80.89
2017-08-26T05:35:51.039Z,81.18
2017-08-26T05:36:31.611Z,81.08
2017-08-26T05:37:12.196Z,80.89
2017-08-26T05:37:52.800Z,81.08
2017-08-26T05:38:33.370Z,80.89
2017-08-26T05:39:13.941Z,80.6
2017-08-26T05:39:54.518Z,80.41
2017-08-26T05:40:35.104Z,80.22
2017-08-26T05:41:15.683Z,80.12
2017-08-26T05:41:56.251Z,80.22
2017-08-26T05:42:36.812Z,80.03
2017-08-26T05:43:17.402Z,80.41
2017-08-26T05:43:57.990Z,80.12
2017-08-26T05:44:38.554Z,80.12
2017-08-26T05:45:19.157Z,79.64
2017-08-26T05:45:59.751Z,80.22
2017-08-26T05:46:40.320Z,80.12
2017-08-26T05:47:20.912Z,80.16
2017-08-26T05:48:01.494Z,79.93
2017-08-26T05:48:42.079Z,80.45
2017-08-26T05:49:22.669Z,80.26
2017-08-26T05:50:03.261Z,80.07
2017-08-26T05:50:43.830Z,80.35
2017-08-26T05:51:24.419Z,80.16
2017-08-26T05:52:04.992Z,80.64
2017-08-26T05:52:45.561Z,80.74
2017-08-26T05:53:26.141Z,80.26
2017-08-26T05:54:06.716Z,80.45
2017-08-26T05:54:47.289Z,80.35
2017-08-26T05:55:27.871Z,79.97
2017-08-26T05:56:08.450Z,79.97
2017-08-26T05:56:49.018Z,79.97
2017-08-26T05:57:29.609Z,80.16
2017-08-26T05:58:10.169Z,79.78
2017-08-26T05:58:50.763Z,79.78
2017-08-26T05:59:31.378Z,79.78
2017-08-26T06:00:11.944Z,80.16
2017-08-26T06:00:52.530Z,80.07
2017-08-26T06:01:33.104Z,79.88
2017-08-26T06:02:13.671Z,79.88
2017-08-26T06:02:54.263Z,79.97
2017-08-26T06:03:34.843Z,79.97
2017-08-26T06:04:15.421Z,79.68
2017-08-26T06:04:55.986Z,79.88
2017-08-26T06:05:36.564Z,79.68
2017-08-26T06:06:17.156Z,79.88
2017-08-26T06:06:57.738Z,80.16
2017-08-26T06:07:38.340Z,79.91
2017-08-26T06:08:18.901Z,80.11
2017-08-26T06:08:59.481Z,79.53
2017-08-26T06:09:40.059Z,79.11
2017-08-26T06:10:20.642Z,79.21
2017-08-26T06:11:01.220Z,78.77
2017-08-26T06:11:41.790Z,79.34
2017-08-26T06:12:22.366Z,79.34
2017-08-26T06:13:02.951Z,79.34
2017-08-26T06:13:43.521Z,79.34
2017-08-26T06:14:24.083Z,79.34
2017-08-26T06:15:04.663Z,78.47
2017-08-26T06:15:45.214Z,78.67
2017-08-26T06:16:25.796Z,78.38
2017-08-26T06:17:06.381Z,78.09
2017-08-26T06:17:46.976Z,78.19
2017-08-26T06:18:27.549Z,78.57
2017-08-26T06:19:08.125Z,77.9
2017-08-26T06:19:48.695Z,77.9
2017-08-26T06:20:29.274Z,77.51
2017-08-26T06:21:09.859Z,77.9
2017-08-26T06:21:50.434Z,77.9
2017-08-26T06:22:31.026Z,78.09
2017-08-26T06:23:11.619Z,77.71
2017-08-26T06:23:52.184Z,78.38
2017-08-26T06:24:32.765Z,77.8
2017-08-26T06:25:13.337Z,77.75
2017-08-26T06:25:53.921Z,77.56
2017-08-26T06:26:34.511Z,77.17
2017-08-26T06:27:15.096Z,77.46
2017-08-26T06:27:55.678Z,77.65
2017-08-26T06:28:36.271Z,77.65
2017-08-26T06:29:16.833Z,77.26
2017-08-26T06:29:57.416Z,76.69
2017-08-26T06:30:37.993Z,76.15
2017-08-26T06:31:18.560Z,75
2017-08-26T06:31:59.148Z,74.23
2017-08-26T06:32:39.742Z,74.81
2017-08-26T06:33:20.332Z,75
2017-08-26T06:34:00.935Z,74.75
2017-08-26T06:34:41.514Z,73.98
2017-08-26T06:35:22.103Z,73.5
2017-08-26T06:36:02.691Z,73.5
2017-08-26T06:36:43.270Z,73.69
2017-08-26T06:37:23.869Z,73.31
2017-08-26T06:38:04.448Z,72.64
2017-08-26T06:38:45.035Z,72.25
2017-08-26T06:39:25.632Z,72.77
2017-08-26T06:40:06.208Z,72.16
2017-08-26T06:40:46.786Z,72
2017-08-26T06:41:27.358Z,71.42
2017-08-26T06:42:07.945Z,70.84
2017-08-26T06:42:48.515Z,70.07
2017-08-26T06:43:29.092Z,69.21
2017-08-26T06:44:09.681Z,69.34
2017-08-26T06:44:50.255Z,68.86
2017-08-26T06:45:30.845Z,68.57
2017-08-26T06:46:11.413Z,69.06
2017-08-26T06:46:52.010Z,69.63
2017-08-26T06:47:32.606Z,69.15
2017-08-26T06:48:13.198Z,68.8
2017-08-26T06:48:53.769Z,68.03
2017-08-26T06:49:34.360Z,67.65
2017-08-26T06:50:14.988Z,67.35
2017-08-26T06:50:55.571Z,66.58
2017-08-26T06:51:36.159Z,67.1
2017-08-26T06:52:16.742Z,66.91
2017-08-26T06:52:57.323Z,65.08
2017-08-26T06:53:37.902Z,65.37
2017-08-26T06:54:18.532Z,65.85
2017-08-26T06:54:59.141Z,64.79
2017-08-26T06:55:39.720Z,64.59
2017-08-26T06:56:20.285Z,64.5
2017-08-26T06:57:00.873Z,64.69
2017-08-26T06:57:41.458Z,64.66
2017-08-26T06:58:22.034Z,65.05
2017-08-26T06:59:02.636Z,65.72
2017-08-26T06:59:43.211Z,66.78
2017-08-26T07:00:23.783Z,66.1
2017-08-26T07:01:04.366Z,66.49
2017-08-26T07:01:44.945Z,66.88
2017-08-26T07:02:25.530Z,67.07
2017-08-26T07:03:06.134Z,66.49
2017-08-26T07:03:46.689Z,66.88
2017-08-26T07:04:27.266Z,66.68
2017-08-26T07:05:07.875Z,66.1
2017-08-26T07:05:48.452Z,66.58
2017-08-26T07:06:29.033Z,66.68
2017-08-26T07:07:09.614Z,66.68
2017-08-26T07:07:50.203Z,66.3
2017-08-26T07:08:30.788Z,66.65
2017-08-26T07:09:11.379Z,66.39
2017-08-26T07:09:51.958Z,67.03
2017-08-26T07:10:32.546Z,67.51
2017-08-26T07:11:13.175Z,66.84
2017-08-26T07:11:53.771Z,67.42
2017-08-26T07:12:34.325Z,67.61
2017-08-26T07:13:14.909Z,67.8
2017-08-26T07:13:55.491Z,67.71
2017-08-26T07:14:36.065Z,68.19
2017-08-26T07:15:16.638Z,67.8
2017-08-26T07:15:57.215Z,67.8
2017-08-26T07:16:37.787Z,68.48
2017-08-26T07:17:18.364Z,68.63
2017-08-26T07:17:58.934Z,68.25
2017-08-26T07:18:39.555Z,68.73
2017-08-26T07:19:20.112Z,68.92
2017-08-26T07:20:00.708Z,69.4
2017-08-26T07:20:41.292Z,69.5
2017-08-26T07:21:21.867Z,69.31
2017-08-26T07:22:02.458Z,70.17
2017-08-26T07:22:43.075Z,69.4
2017-08-26T07:23:23.655Z,70.17
2017-08-26T07:24:04.236Z,70.17
2017-08-26T07:24:44.809Z,70.27
2017-08-26T07:25:25.381Z,69.98
2017-08-26T07:26:05.985Z,70.27
2017-08-26T07:26:46.570Z,70.56
2017-08-26T07:27:27.150Z,70.75
2017-08-26T07:28:07.751Z,70.75
2017-08-26T07:28:48.344Z,71.04
2017-08-26T07:29:28.946Z,71.04
2017-08-26T07:30:09.561Z,70.56
2017-08-26T07:30:50.138Z,70.75
2017-08-26T07:31:30.756Z,70.84
2017-08-26T07:32:11.407Z,70.56
2017-08-26T07:32:52.002Z,70.84
2017-08-26T07:33:32.582Z,70.88
2017-08-26T07:34:13.159Z,70.84
2017-08-26T07:34:53.753Z,70.11
2017-08-26T07:35:34.361Z,70.11
2017-08-26T07:36:14.969Z,70.01
2017-08-26T07:36:55.596Z,69.44
2017-08-26T07:37:36.198Z,69.34
2017-08-26T07:38:16.772Z,68.86
2017-08-26T07:38:57.349Z,69.15
2017-08-26T07:39:37.971Z,69.67
2017-08-26T07:40:18.541Z,68.6
2017-08-26T07:40:59.122Z,68.9
2017-08-26T07:41:39.708Z,68.7
2017-08-26T07:42:20.298Z,68.41
2017-08-26T07:43:00.870Z,68.41
2017-08-26T07:43:41.472Z,68.9
2017-08-26T07:44:22.087Z,68.41
2017-08-26T07:45:02.656Z,68.41
2017-08-26T07:45:43.237Z,68.03
2017-08-26T07:46:23.837Z,67.93
2017-08-26T07:47:04.434Z,67.83
2017-08-26T07:47:45.049Z,67.45
2017-08-26T07:48:25.626Z,67.65
2017-08-26T07:49:06.202Z,66.88
2017-08-26T07:49:46.785Z,66.97
2017-08-26T07:50:27.365Z,67.35
2017-08-26T07:51:07.937Z,67.26
2017-08-26T07:51:48.527Z,66.97
2017-08-26T07:52:29.106Z,67.07
2017-08-26T07:53:09.687Z,67.07
2017-08-26T07:53:50.274Z,66.97
2017-08-26T07:54:30.859Z,66.97
2017-08-26T07:55:11.436Z,66.97
2017-08-26T07:55:52.028Z,67.74
2017-08-26T07:56:32.589Z,67.83
2017-08-26T07:57:13.160Z,67.35
2017-08-26T07:57:53.738Z,67.07
2017-08-26T07:58:34.312Z,67.16
2017-08-26T07:59:14.886Z,66.78
2017-08-26T07:59:55.474Z,67.26
2017-08-26T08:00:36.048Z,66.68
2017-08-26T08:01:16.635Z,66.39
2017-08-26T08:01:57.239Z,66.58
2017-08-26T08:02:37.822Z,66.65
2017-08-26T08:03:18.407Z,66.3
2017-08-26T08:03:58.990Z,66.88
2017-08-26T08:04:39.614Z,66.84
2017-08-26T08:05:20.167Z,67.51
2017-08-26T08:06:00.736Z,67.32
2017-08-26T08:06:41.317Z,67.22
2017-08-26T08:07:21.884Z,67.32
2017-08-26T08:08:02.443Z,67.8
2017-08-26T08:08:43.015Z,67.9
2017-08-26T08:09:23.598Z,67.8
2017-08-26T08:10:04.184Z,68.29
2017-08-26T08:10:44.754Z,68.19
2017-08-26T08:11:25.383Z,68.29
2017-08-26T08:12:05.972Z,68.67
2017-08-26T08:12:46.586Z,68.57
2017-08-26T08:13:27.161Z,68.57
2017-08-26T08:14:07.739Z,68.38
2017-08-26T08:14:48.320Z,68.38
2017-08-26T08:15:28.948Z,69.15
2017-08-26T08:16:09.515Z,69.44
2017-08-26T08:16:50.106Z,68.86
2017-08-26T08:17:30.688Z,68.48
2017-08-26T08:18:11.285Z,68.38
2017-08-26T08:18:51.857Z,68.76
2017-08-26T08:19:32.436Z,68.48
2017-08-26T08:20:13.006Z,68.48
2017-08-26T08:20:53.594Z,68.29
2017-08-26T08:21:34.183Z,68.38
2017-08-26T08:22:14.803Z,68.57
2017-08-26T08:22:55.370Z,68.38
2017-08-26T08:23:35.972Z,68.38
2017-08-26T08:24:16.555Z,68.38
2017-08-26T08:24:57.122Z,68.67
2017-08-26T08:25:37.707Z,68.57
2017-08-26T08:26:18.289Z,68.38
2017-08-26T08:26:58.912Z,67.77
2017-08-26T08:27:39.483Z,68.38
2017-08-26T08:28:20.070Z,68.48
2017-08-26T08:29:00.644Z,68.48
2017-08-26T08:29:41.210Z,68.67
2017-08-26T08:30:21.795Z,68.38
2017-08-26T08:31:02.390Z,68.09
2017-08-26T08:31:42.984Z,68.09
2017-08-26T08:32:23.590Z,68.48
2017-08-26T08:33:04.173Z,68.54
2017-08-26T08:33:44.771Z,69.15
2017-08-26T08:34:25.345Z,68.57
2017-08-26T08:35:05.930Z,68.83
2017-08-26T08:35:46.493Z,68.86
2017-08-26T08:36:27.069Z,69.06
2017-08-26T08:37:07.647Z,69.63
2017-08-26T08:37:48.223Z,69.4
2017-08-26T08:38:28.786Z,69.24
2017-08-26T08:39:09.362Z,69.44
2017-08-26T08:39:49.955Z,69.5
2017-08-26T08:40:30.513Z,69.24
2017-08-26T08:41:11.088Z,69.44
2017-08-26T08:41:51.658Z,69.63
2017-08-26T08:42:32.260Z,69.44
2017-08-26T08:43:12.828Z,68.76
2017-08-26T08:43:53.399Z,68.57
2017-08-26T08:44:33.975Z,68.38